Time;durP1;ratioP1;P1;durP2;ratioP2;P2;SDS_P1;SDS_P2;PMS_P1;PMS_P2;Temp;Humidity;BMP_temperature;BMP_pressure;BME280_temperature;BME280_humidity;BME280_pressure;Samples;Min_cycle;Max_cycle;Signal;HPM_P1;HPM_P2
2023/01/06 00:01:05;;;;;;;5.93;4.60;;;;;;;-143.84;55.74;45130.94;5095640;28;20432;-74
2023/01/06 00:03:33;;;;;;;5.60;4.83;;;;;;;-143.84;56.04;45119.53;5095752;28;20493;-74
2023/01/06 00:06:01;;;;;;;5.33;4.83;;;;;;;-143.84;56.31;45125.22;5095175;28;20437;-74
2023/01/06 00:08:28;;;;;;;6.00;4.77;;;;;;;-143.84;56.03;45136.66;5095235;28;21240;-74
2023/01/06 00:10:56;;;;;;;9.40;5.80;;;;;;;-143.84;56.31;45159.50;5094811;28;20551;-74
2023/01/06 00:13:23;;;;;;;5.57;4.83;;;;;;;-143.84;56.22;45130.94;5095431;28;20477;-74
2023/01/06 00:15:51;;;;;;;6.23;5.63;;;;;;;-143.84;56.48;45144.28;5094915;28;20427;-74
2023/01/06 00:18:18;;;;;;;9.80;5.27;;;;;;;-143.84;56.47;45136.66;5094776;28;20441;-74
2023/01/06 00:20:46;;;;;;;8.07;5.60;;;;;;;-143.84;56.73;45125.22;5094950;28;20489;-74
2023/01/06 00:23:13;;;;;;;5.23;4.70;;;;;;;-143.84;56.70;45096.66;5095384;28;20447;-74
2023/01/06 00:25:40;;;;;;;9.30;5.10;;;;;;;-143.84;57.19;45165.22;5094869;28;20436;-74
2023/01/06 00:28:07;;;;;;;4.93;4.50;;;;;;;-143.84;57.18;45144.28;5095100;28;20428;-74
2023/01/06 00:30:34;;;;;;;6.67;5.20;;;;;;;-143.84;57.53;45151.91;5094671;28;20954;-74
2023/01/06 00:33:03;;;;;;;12.90;5.10;;;;;;;-143.84;58.12;45125.22;5095089;28;20429;-74
2023/01/06 00:35:30;;;;;;;8.70;6.03;;;;;;;-143.84;58.70;45134.75;5094380;28;20432;-74
2023/01/06 00:37:58;;;;;;;5.57;4.03;;;;;;;-143.84;59.21;45144.28;5094476;28;20493;-74
2023/01/06 00:40:25;;;;;;;6.40;5.27;;;;;;;-143.84;59.90;45121.44;5094645;28;20513;-74
2023/01/06 00:42:52;;;;;;;8.47;6.70;;;;;;;-143.84;60.18;45148.09;5094592;28;20431;-74
2023/01/06 00:45:19;;;;;;;7.80;5.47;;;;;;;-143.84;60.67;45140.47;5094594;28;20436;-74
2023/01/06 00:47:46;;;;;;;8.30;6.07;;;;;;;-143.84;60.98;45144.28;5094429;28;20439;-74
2023/01/06 00:50:15;;;;;;;6.20;5.30;;;;;;;-143.84;61.44;45142.38;5094233;28;20918;-74
2023/01/06 00:52:42;;;;;;;10.60;6.27;;;;;;;-143.84;61.80;45136.66;5094582;28;20482;-75
2023/01/06 00:55:10;;;;;;;7.93;6.40;;;;;;;-143.84;61.93;45155.69;5094591;28;20493;-74
2023/01/06 00:57:38;;;;;;;7.60;5.77;;;;;;;-143.84;62.12;45132.84;5093921;28;20452;-74
2023/01/06 01:00:06;;;;;;;6.53;5.30;;;;;;;-143.84;62.61;45165.22;5093910;28;20527;-74
2023/01/06 01:02:33;;;;;;;8.70;6.30;;;;;;;-143.84;62.39;45159.50;5094548;28;20435;-75
2023/01/06 01:05:00;;;;;;;10.90;5.80;;;;;;;-143.84;62.77;45150.00;5094064;28;20436;-74
2023/01/06 01:07:29;;;;;;;9.03;6.57;;;;;;;-143.84;62.69;45159.50;5093923;28;20493;-74
2023/01/06 01:09:56;;;;;;;8.43;5.37;;;;;;;-143.84;62.52;45159.50;5093655;28;20454;-75
2023/01/06 01:12:23;;;;;;;8.20;6.13;;;;;;;-143.84;62.75;45148.09;5094248;28;20467;-74
2023/01/06 01:14:52;;;;;;;8.13;6.27;;;;;;;-143.84;63.11;45144.28;5094251;28;20431;-74
2023/01/06 01:17:21;;;;;;;8.67;6.40;;;;;;;-143.84;63.58;45159.50;5093797;28;20435;-74
2023/01/06 01:19:50;;;;;;;9.33;6.43;;;;;;;-143.84;63.74;45153.81;5093860;28;20435;-74
2023/01/06 01:22:18;;;;;;;7.40;6.70;;;;;;;-143.84;63.79;45172.84;5093894;28;20649;-74
2023/01/06 01:24:47;;;;;;;9.23;6.60;;;;;;;-143.84;64.08;45138.56;5092972;28;20432;-75
2023/01/06 01:27:14;;;;;;;10.70;6.57;;;;;;;-143.84;64.02;45136.66;5093777;28;20504;-75
2023/01/06 01:29:41;;;;;;;8.87;6.23;;;;;;;-143.84;64.39;45148.09;5093455;28;20930;-74
2023/01/06 01:32:08;;;;;;;9.13;7.33;;;;;;;-143.84;64.22;45161.41;5093623;28;20517;-74
2023/01/06 01:34:35;;;;;;;9.00;6.23;;;;;;;-143.84;64.42;45148.09;5093946;28;20462;-74
2023/01/06 01:37:03;;;;;;;8.83;7.07;;;;;;;-143.84;64.75;45157.59;5093454;28;20486;-74
2023/01/06 01:39:31;;;;;;;7.37;5.93;;;;;;;-143.84;64.64;45136.66;5093397;28;20435;-74
2023/01/06 01:42:00;;;;;;;7.93;6.87;;;;;;;-143.84;64.88;45130.94;5093278;28;20496;-75
2023/01/06 01:44:53;;;;;;;9.37;6.10;;;;;;;-143.84;64.77;45155.69;5093714;28;20432;-75
2023/01/06 01:47:27;;;;;;;8.03;6.20;;;;;;;-143.84;64.85;45151.91;5093535;28;20824;-74
2023/01/06 01:49:58;;;;;;;8.33;6.60;;;;;;;-143.84;64.85;45142.38;5093160;28;20492;-74
2023/01/06 01:52:26;;;;;;;10.53;6.70;;;;;;;-143.84;65.11;45144.28;5093112;28;20525;-74
2023/01/06 01:54:55;;;;;;;9.83;7.00;;;;;;;-143.84;65.23;45132.84;5093363;28;20443;-75
2023/01/06 01:57:28;;;;;;;11.00;6.80;;;;;;;-143.84;65.42;45140.47;5093148;28;20434;-74
2023/01/06 01:59:55;;;;;;;8.90;7.20;;;;;;;-143.84;65.53;45155.69;5093074;28;20977;-74
2023/01/06 02:02:24;;;;;;;8.30;6.53;;;;;;;-143.84;65.75;45150.00;5092660;28;20441;-74
2023/01/06 02:04:55;;;;;;;10.63;7.00;;;;;;;-143.84;66.26;45144.28;5093105;28;20490;-74
2023/01/06 02:07:25;;;;;;;12.23;6.70;;;;;;;-143.84;66.32;45148.09;5093168;28;20432;-74
2023/01/06 02:10:00;;;;;;;9.90;6.83;;;;;;;-143.84;66.83;45159.50;5092600;28;20513;-74
2023/01/06 02:12:30;;;;;;;10.13;7.57;;;;;;;-143.84;67.09;45140.47;5092396;28;21008;-74
2023/01/06 02:14:57;;;;;;;9.30;6.80;;;;;;;-143.84;67.21;45146.19;5092760;28;20497;-74
2023/01/06 02:17:59;;;;;;;15.43;7.53;;;;;;;-143.84;67.48;45189.97;5092652;28;20430;-73
2023/01/06 02:20:50;;;;;;;11.23;6.83;;;;;;;-143.84;67.79;45150.00;5066744;28;20968;-74
2023/01/06 02:23:47;;;;;;;10.90;7.23;;;;;;;-143.84;67.95;45172.84;5064424;28;20504;-74
2023/01/06 02:27:01;;;;;;;9.90;7.67;;;;;;;-143.84;68.29;45148.09;5092418;28;20851;-74
2023/01/06 02:30:00;;;;;;;11.00;7.37;;;;;;;-143.84;69.13;45148.09;5030462;28;21116;-74
2023/01/06 02:33:02;;;;;;;13.13;7.97;;;;;;;-143.84;68.98;45153.81;5091045;28;20491;-74
2023/01/06 02:36:18;;;;;;;8.40;6.60;;;;;;;-143.84;69.30;45155.69;5092940;28;20441;-74
2023/01/06 02:39:01;;;;;;;13.43;7.93;;;;;;;-143.84;69.27;45148.09;5087825;28;20546;-74
2023/01/06 02:41:34;;;;;;;9.60;6.87;;;;;;;-143.84;69.43;45159.50;5092446;28;20437;-74
2023/01/06 02:44:05;;;;;;;10.40;7.47;;;;;;;-143.84;69.31;45150.00;5092254;28;20858;-74
2023/01/06 02:46:57;;;;;;;14.00;7.53;;;;;;;-143.84;69.48;45151.91;5092497;28;20800;-74
2023/01/06 02:49:32;;;;;;;7.93;6.47;;;;;;;-143.84;69.54;45142.38;5092098;28;20496;-74
2023/01/06 02:52:05;;;;;;;10.10;7.20;;;;;;;-143.84;69.62;45150.00;5092353;28;21033;-74
2023/01/06 02:54:41;;;;;;;9.80;7.57;;;;;;;-143.84;69.63;45144.28;5091025;28;20423;-74
2023/01/06 02:57:16;;;;;;;9.63;7.50;;;;;;;-143.84;70.00;45138.56;5092016;28;20434;-74
2023/01/06 02:59:50;;;;;;;9.57;6.93;;;;;;;-143.84;70.04;45155.69;5092045;28;20494;-74
2023/01/06 03:02:19;;;;;;;8.73;7.33;;;;;;;-143.84;69.87;45150.00;5092353;28;20966;-74
2023/01/06 03:04:51;;;;;;;9.83;7.50;;;;;;;-143.84;70.11;45140.47;5091833;28;20439;-74
2023/01/06 03:07:20;;;;;;;14.80;7.30;;;;;;;-143.84;70.08;45117.63;5092107;28;20443;-74
2023/01/06 03:09:51;;;;;;;13.83;7.10;;;;;;;-143.84;70.27;45170.94;5092130;28;20454;-74
2023/01/06 03:12:27;;;;;;;9.40;6.60;;;;;;;-143.84;70.52;45146.19;5092070;28;20474;-74
2023/01/06 03:14:56;;;;;;;9.33;7.23;;;;;;;-143.84;70.46;45146.19;5092396;28;20441;-74
2023/01/06 03:17:23;;;;;;;8.20;6.53;;;;;;;-143.84;70.42;45132.84;5091866;28;20513;-74
2023/01/06 03:19:53;;;;;;;8.50;7.10;;;;;;;-143.84;70.44;45150.00;5092331;28;20428;-74
2023/01/06 03:22:22;;;;;;;10.30;6.73;;;;;;;-143.84;70.25;45150.00;5091655;28;20438;-74
2023/01/06 03:24:49;;;;;;;11.20;8.00;;;;;;;-143.84;70.76;45155.69;5096097;28;20499;-74
2023/01/06 03:27:20;;;;;;;10.27;7.80;;;;;;;-143.84;70.46;45129.03;5096076;28;20444;-74
2023/01/06 03:29:47;;;;;;;8.63;6.87;;;;;;;-143.84;70.50;45155.69;5096266;28;20435;-74
2023/01/06 03:32:22;;;;;;;12.00;7.93;;;;;;;-143.84;70.58;45148.09;5095789;28;20527;-74
2023/01/06 03:35:09;;;;;;;9.83;7.67;;;;;;;-143.84;71.08;45146.19;5095752;28;20462;-74
2023/01/06 03:37:47;;;;;;;7.83;6.90;;;;;;;-143.84;71.12;45151.91;5096148;28;20491;-74
2023/01/06 03:40:26;;;;;;;9.77;7.53;;;;;;;-143.84;71.34;45140.47;5095964;28;20426;-75
2023/01/06 03:43:15;;;;;;;9.10;7.43;;;;;;;-143.84;71.28;45150.00;5096092;28;20430;-74
2023/01/06 03:46:12;;;;;;;10.10;6.53;;;;;;;-143.84;71.58;45159.50;5095663;28;20441;-74
2023/01/06 03:48:52;;;;;;;13.67;7.50;;;;;;;-143.84;71.68;45153.81;5094875;28;20893;-74
2023/01/06 03:51:37;;;;;;;10.43;7.70;;;;;;;-143.84;72.02;45165.22;5095484;28;20944;-74
2023/01/06 03:54:10;;;;;;;9.20;7.10;;;;;;;-143.84;72.12;45136.66;5095363;28;20434;-74
2023/01/06 03:56:43;;;;;;;11.43;8.00;;;;;;;-143.84;72.24;45155.69;5095173;28;20805;-74
2023/01/06 03:59:15;;;;;;;8.63;7.40;;;;;;;-143.84;72.88;45138.56;5095280;28;20436;-74
2023/01/06 04:01:44;;;;;;;9.73;6.63;;;;;;;-143.84;73.25;45151.91;5095731;28;20500;-74
2023/01/06 04:04:11;;;;;;;9.77;7.37;;;;;;;-143.84;73.29;45167.13;5095172;28;20840;-74
2023/01/06 04:06:40;;;;;;;10.30;8.27;;;;;;;-143.84;73.30;45136.66;5095191;28;20425;-74
2023/01/06 04:09:07;;;;;;;11.40;8.53;;;;;;;-143.84;73.40;45184.25;5095588;28;20441;-74
2023/01/06 04:14:19;;;;;;;11.27;7.67;;;;;;;-143.84;73.45;45144.28;5095287;28;20790;-74
2023/01/06 04:16:46;;;;;;;10.30;7.50;;;;;;;-143.84;73.96;45121.44;5095085;28;20489;-74
2023/01/06 04:19:13;;;;;;;12.80;7.70;;;;;;;-143.84;74.37;45142.38;5095105;28;20963;-74
2023/01/06 04:21:42;;;;;;;15.23;6.60;;;;;;;-143.84;74.33;45138.56;5095235;28;20658;-74
2023/01/06 04:24:09;;;;;;;9.10;7.07;;;;;;;-143.84;74.27;45184.25;5095238;28;20436;-74
2023/01/06 04:26:37;;;;;;;9.03;6.33;;;;;;;-143.84;74.99;45155.69;5094661;28;20491;-74
2023/01/06 04:29:04;;;;;;;8.10;6.70;;;;;;;-143.84;75.06;45144.28;5094692;28;20429;-74
2023/01/06 04:31:31;;;;;;;16.73;7.13;;;;;;;-143.84;74.89;45161.41;5094059;28;20429;-74
2023/01/06 04:33:58;;;;;;;15.70;8.60;;;;;;;-143.84;74.52;45169.03;5093273;28;21055;-74
2023/01/06 04:36:25;;;;;;;10.60;6.60;;;;;;;-143.84;74.72;45153.81;5094441;28;20827;-74
2023/01/06 04:38:54;;;;;;;8.87;7.30;;;;;;;-143.84;74.92;45159.50;5094360;28;20437;-74
2023/01/06 04:41:21;;;;;;;7.03;6.43;;;;;;;-143.84;74.89;45142.38;5094487;28;20440;-74
2023/01/06 04:43:48;;;;;;;9.87;6.83;;;;;;;-143.84;74.86;45153.81;5094867;28;20434;-74
2023/01/06 04:46:16;;;;;;;14.63;6.97;;;;;;;-143.84;74.47;45151.91;5094434;28;20435;-74
2023/01/06 04:48:43;;;;;;;10.03;7.07;;;;;;;-143.84;74.70;45167.13;5094421;28;20499;-74
2023/01/06 04:51:11;;;;;;;9.20;7.00;;;;;;;-143.84;75.12;45170.94;5094315;28;20433;-74
2023/01/06 04:53:40;;;;;;;11.20;8.00;;;;;;;-143.84;74.95;45138.56;5094194;28;20492;-74
2023/01/06 04:56:11;;;;;;;8.00;6.87;;;;;;;-143.84;74.66;45151.91;5094298;28;20500;-74
2023/01/06 04:58:38;;;;;;;14.17;7.67;;;;;;;-143.84;74.53;45157.59;5093804;28;20443;-73
2023/01/06 05:01:08;;;;;;;14.83;7.80;;;;;;;-143.84;74.58;45161.41;5094020;28;20474;-73
2023/01/06 05:03:35;;;;;;;9.13;6.90;;;;;;;-143.84;74.74;45161.41;5093763;28;20848;-73
2023/01/06 05:06:04;;;;;;;11.40;7.60;;;;;;;-143.84;74.81;45140.47;5093681;28;20426;-71
2023/01/06 05:08:32;;;;;;;12.17;7.50;;;;;;;-143.84;74.90;45163.31;5093535;28;20436;-73
2023/01/06 05:11:00;;;;;;;8.93;7.10;;;;;;;-143.84;74.30;45138.56;5093182;28;20538;-73
2023/01/06 05:13:31;;;;;;;10.80;6.70;;;;;;;-143.84;74.64;45153.81;5093357;28;20475;-73
2023/01/06 05:15:58;;;;;;;11.57;7.40;;;;;;;-143.84;74.50;45163.31;5093702;28;20978;-74
2023/01/06 05:18:25;;;;;;;9.53;7.20;;;;;;;-143.84;74.41;45155.69;5093865;28;20935;-74
2023/01/06 05:20:53;;;;;;;11.53;6.73;;;;;;;-143.84;74.49;45140.47;5093465;28;20446;-75
2023/01/06 05:23:21;;;;;;;10.67;7.13;;;;;;;-143.84;74.67;45134.75;5093561;28;20451;-73
2023/01/06 05:25:51;;;;;;;7.00;6.00;;;;;;;-143.84;74.51;45146.19;5093932;28;20440;-73
2023/01/06 05:28:18;;;;;;;7.67;6.57;;;;;;;-143.84;73.73;45159.50;5093246;28;20536;-73
2023/01/06 05:30:48;;;;;;;9.93;6.40;;;;;;;-143.84;73.71;45140.47;5093676;28;20445;-74
2023/01/06 05:33:16;;;;;;;9.53;7.57;;;;;;;-143.84;73.62;45167.13;5093565;28;21004;-74
2023/01/06 05:35:43;;;;;;;11.83;6.87;;;;;;;-143.84;73.67;45178.56;5093392;28;20443;-74
2023/01/06 05:38:10;;;;;;;9.43;7.00;;;;;;;-143.84;73.56;45153.81;5093359;28;21287;-74
2023/01/06 05:40:37;;;;;;;6.67;5.73;;;;;;;-143.84;73.46;45153.81;5093867;28;20431;-74
2023/01/06 05:43:04;;;;;;;12.97;7.03;;;;;;;-143.84;73.39;45132.84;5093414;28;20461;-75
2023/01/06 05:45:32;;;;;;;11.57;6.30;;;;;;;-143.84;73.43;45178.56;5092628;28;20479;-76
2023/01/06 05:48:01;;;;;;;8.40;6.30;;;;;;;-143.84;73.36;45136.66;5093312;28;20441;-76
2023/01/06 05:50:28;;;;;;;10.63;6.60;;;;;;;-143.84;72.79;45150.00;5093226;28;20449;-77
2023/01/06 05:52:55;;;;;;;10.40;6.00;;;;;;;-143.84;72.84;45138.56;5093046;28;20531;-77
2023/01/06 05:55:22;;;;;;;11.30;6.40;;;;;;;-143.84;72.88;45155.69;5092787;28;20442;-77
2023/01/06 05:57:50;;;;;;;10.93;6.63;;;;;;;-143.84;72.50;45153.81;5093139;28;20441;-77
2023/01/06 06:00:17;;;;;;;8.37;6.70;;;;;;;-143.84;72.74;45140.47;5093447;28;20434;-76
2023/01/06 06:02:45;;;;;;;10.30;6.43;;;;;;;-143.84;72.86;45155.69;5093236;28;20442;-74
2023/01/06 06:05:13;;;;;;;8.47;6.47;;;;;;;-143.84;72.31;45150.00;5093348;28;20866;-74
2023/01/06 06:07:40;;;;;;;14.33;6.60;;;;;;;-143.84;72.52;45169.03;5093028;28;20732;-74
2023/01/06 06:10:08;;;;;;;10.90;6.03;;;;;;;-143.84;72.67;45178.56;5092528;28;20542;-76
2023/01/06 06:12:36;;;;;;;18.10;6.70;;;;;;;-143.84;72.50;45178.56;5092278;28;20473;-76
2023/01/06 06:15:03;;;;;;;8.73;6.07;;;;;;;-143.84;72.82;45155.69;5092553;28;20433;-77
2023/01/06 06:17:31;;;;;;;9.53;6.83;;;;;;;-143.84;72.70;45140.47;5092584;28;20432;-77
2023/01/06 06:19:58;;;;;;;11.93;6.30;;;;;;;-143.84;72.78;45157.59;5092509;28;20438;-77
2023/01/06 06:22:27;;;;;;;10.70;7.07;;;;;;;-143.84;73.11;45144.28;5092521;28;20446;-77
2023/01/06 06:24:54;;;;;;;15.33;7.13;;;;;;;-143.84;72.89;45174.75;5091216;28;20455;-77
2023/01/06 06:27:21;;;;;;;7.90;5.87;;;;;;;-143.84;72.92;45151.91;5088744;28;20889;-77
2023/01/06 06:29:48;;;;;;;10.10;6.10;;;;;;;-143.84;73.03;45163.31;5091470;28;20455;-77
2023/01/06 06:32:15;;;;;;;7.77;6.23;;;;;;;-143.84;73.10;45150.00;5090668;28;20442;-77
2023/01/06 06:34:43;;;;;;;21.67;6.97;;;;;;;-143.84;73.60;45142.38;5091935;28;20572;-77
2023/01/06 06:37:10;;;;;;;9.37;8.00;;;;;;;-143.84;73.63;45155.69;5092599;28;20434;-77
2023/01/06 06:39:38;;;;;;;12.27;7.13;;;;;;;-143.84;72.98;45163.31;5091994;28;20434;-77
2023/01/06 06:42:06;;;;;;;6.27;5.67;;;;;;;-143.84;73.11;45159.50;5091835;28;20488;-75
2023/01/06 06:44:33;;;;;;;7.93;7.03;;;;;;;-143.84;72.91;45119.53;5091439;28;20454;-74
2023/01/06 06:47:00;;;;;;;10.13;5.37;;;;;;;-143.84;72.59;45165.22;5091862;28;20985;-75
2023/01/06 06:49:27;;;;;;;10.63;6.13;;;;;;;-143.84;71.96;45159.50;5087116;28;20879;-74
2023/01/06 06:51:54;;;;;;;12.53;6.27;;;;;;;-143.84;71.40;45159.50;5089473;28;20864;-75
2023/01/06 06:54:21;;;;;;;10.80;6.33;;;;;;;-143.84;71.14;45148.09;5090587;28;21016;-74
2023/01/06 06:56:50;;;;;;;8.83;6.00;;;;;;;-143.84;70.24;45142.38;5090752;28;20443;-75
2023/01/06 06:59:17;;;;;;;10.30;5.90;;;;;;;-143.84;70.40;45169.03;5091133;28;20520;-75
2023/01/06 07:01:44;;;;;;;9.70;6.30;;;;;;;-143.84;70.28;45170.94;5091124;28;20964;-75
2023/01/06 07:04:11;;;;;;;12.33;5.87;;;;;;;-143.84;69.71;45153.81;5091385;28;20451;-75
2023/01/06 07:06:38;;;;;;;7.73;5.77;;;;;;;-143.84;69.71;45170.94;5091968;28;20427;-75
2023/01/06 07:09:06;;;;;;;10.47;7.43;;;;;;;-143.84;69.89;45142.38;5090985;28;20443;-75
2023/01/06 07:11:33;;;;;;;8.10;5.00;;;;;;;-143.84;69.49;45148.09;5090556;28;20472;-75
2023/01/06 07:14:02;;;;;;;6.60;5.30;;;;;;;-143.84;69.79;45155.69;5091165;28;20867;-74
2023/01/06 07:16:29;;;;;;;10.63;6.37;;;;;;;-143.84;69.69;45170.94;5091172;28;20538;-75
2023/01/06 07:18:56;;;;;;;10.53;6.93;;;;;;;-143.84;69.71;45136.66;5091132;28;20507;-75
2023/01/06 07:21:23;;;;;;;14.13;6.30;;;;;;;-143.84;70.17;45174.75;5091025;28;20849;-75
2023/01/06 07:23:50;;;;;;;11.27;6.40;;;;;;;-143.84;69.92;45150.00;5090771;28;20437;-75
2023/01/06 07:26:18;;;;;;;16.20;6.93;;;;;;;-143.84;69.77;45138.56;5091162;28;20448;-74
2023/01/06 07:28:45;;;;;;;9.77;7.20;;;;;;;-143.84;69.35;45161.41;5091439;28;20510;-75
2023/01/06 07:31:14;;;;;;;13.33;7.47;;;;;;;-143.84;69.43;45150.00;5090429;28;20488;-75
2023/01/06 07:33:41;;;;;;;7.93;6.07;;;;;;;-143.84;69.39;45151.91;5090067;28;20526;-75
2023/01/06 07:36:09;;;;;;;16.63;6.60;;;;;;;-143.84;69.67;45123.34;5091230;28;20948;-75
2023/01/06 07:38:36;;;;;;;14.80;6.80;;;;;;;-143.84;69.61;45170.94;5090174;28;20451;-75
2023/01/06 07:41:04;;;;;;;16.13;6.73;;;;;;;-143.84;69.63;45155.69;5089200;28;20859;-75
2023/01/06 07:43:31;;;;;;;10.80;5.87;;;;;;;-143.84;69.69;45167.13;5090474;28;20500;-75
2023/01/06 07:45:58;;;;;;;22.93;6.63;;;;;;;-143.84;69.81;45148.09;5090798;28;20957;-75
2023/01/06 07:48:27;;;;;;;8.80;4.67;;;;;;;-143.84;69.68;45165.22;5091157;28;20443;-75
2023/01/06 07:50:54;;;;;;;9.87;5.70;;;;;;;-143.84;69.66;45157.59;5091428;28;20963;-75
2023/01/06 07:53:21;;;;;;;5.93;4.90;;;;;;;-143.84;69.46;45148.09;5091498;28;20895;-75
2023/01/06 07:55:52;;;;;;;9.33;5.50;;;;;;;-143.84;68.78;45138.56;5091160;28;20786;-75
2023/01/06 07:58:19;;;;;;;6.03;4.53;;;;;;;-143.84;67.88;45130.94;5091221;28;20961;-75
2023/01/06 08:00:46;;;;;;;8.73;5.00;;;;;;;-143.84;66.64;45121.44;5090009;28;20443;-76
2023/01/06 08:03:14;;;;;;;8.77;5.10;;;;;;;-143.84;64.85;45125.22;5090815;28;20996;-76
2023/01/06 08:05:42;;;;;;;6.00;4.50;;;;;;;-143.84;63.70;45136.66;5090345;28;20479;-76
2023/01/06 08:08:10;;;;;;;7.90;5.33;;;;;;;-143.84;63.83;45148.09;5091153;28;20456;-76
2023/01/06 08:10:40;;;;;;;16.47;4.83;;;;;;;-143.84;62.53;45144.28;5094290;28;20485;-76
2023/01/06 08:13:07;;;;;;;11.17;5.40;;;;;;;-143.84;60.76;45129.03;5094956;28;20518;-76
2023/01/06 08:15:36;;;;;;;11.23;4.40;;;;;;;-143.84;59.40;45132.84;5094751;28;20451;-76
2023/01/06 08:18:03;;;;;;;6.87;4.57;;;;;;;-143.84;58.14;45111.91;5095263;28;20439;-76
2023/01/06 08:20:30;;;;;;;8.87;4.60;;;;;;;-143.84;57.36;45125.22;5095087;28;20426;-75
2023/01/06 08:22:59;;;;;;;11.03;5.20;;;;;;;-143.84;55.62;45144.28;5094514;28;20504;-75
2023/01/06 08:25:26;;;;;;;7.50;5.10;;;;;;;-143.84;55.03;45117.63;5094281;28;20451;-76
2023/01/06 08:27:53;;;;;;;18.60;6.90;;;;;;;-143.84;54.04;45125.22;5094643;28;21020;-76
2023/01/06 08:30:20;;;;;;;8.27;5.20;;;;;;;-143.84;53.00;45121.44;5093487;28;20458;-76
2023/01/06 08:32:48;;;;;;;11.10;8.00;;;;;;;-143.84;52.39;45113.81;5094396;28;20443;-75
2023/01/06 08:35:16;;;;;;;4.03;3.63;;;;;;;-143.84;50.40;45123.34;5094095;28;20478;-74
2023/01/06 08:37:43;;;;;;;5.50;3.20;;;;;;;-143.84;50.33;45129.03;5094810;28;20442;-75
2023/01/06 08:40:12;;;;;;;4.80;3.70;;;;;;;-143.84;48.99;45129.03;5094687;28;20443;-75
2023/01/06 08:42:39;;;;;;;8.87;4.37;;;;;;;-143.84;49.98;45110.00;5094538;28;20439;-75
2023/01/06 08:45:08;;;;;;;3.50;3.20;;;;;;;-143.84;47.97;45125.22;5094340;28;20431;-76
2023/01/06 08:47:36;;;;;;;12.97;5.80;;;;;;;-143.84;47.77;45100.47;5094275;28;20530;-76
2023/01/06 08:50:04;;;;;;;5.40;3.63;;;;;;;-143.84;46.75;45096.66;5094443;28;20929;-75
2023/01/06 08:52:32;;;;;;;9.53;3.13;;;;;;;-143.84;46.24;45106.19;5094444;28;20809;-74
2023/01/06 08:54:59;;;;;;;8.30;4.90;;;;;;;-143.84;47.01;45129.03;5094126;28;20998;-74
2023/01/06 08:57:29;;;;;;;9.23;3.57;;;;;;;-143.84;45.48;45132.84;5095171;28;20765;-76
2023/01/06 08:59:56;;;;;;;8.83;2.43;;;;;;;-143.84;45.21;45110.00;5093644;28;20504;-77
2023/01/06 09:02:26;;;;;;;16.27;3.30;;;;;;;-143.84;45.33;45111.91;5093452;28;20462;-76
2023/01/06 09:04:53;;;;;;;8.20;2.90;;;;;;;-143.84;44.84;45119.53;5092572;28;20908;-75
2023/01/06 09:07:20;;;;;;;9.50;4.40;;;;;;;-143.84;45.01;45121.44;5092623;28;20445;-75
2023/01/06 09:09:47;;;;;;;5.87;3.80;;;;;;;-143.84;45.01;45134.75;5091626;28;20451;-75
2023/01/06 09:12:14;;;;;;;12.87;3.77;;;;;;;-143.84;44.40;45115.72;5091384;28;20451;-76
2023/01/06 09:14:43;;;;;;;4.43;2.57;;;;;;;-143.84;43.33;45108.09;5091554;28;20480;-76
2023/01/06 09:17:10;;;;;;;11.00;3.47;;;;;;;-143.84;43.69;45113.81;5091799;28;20510;-76
2023/01/06 09:19:37;;;;;;;6.43;3.60;;;;;;;-143.84;43.56;45110.00;5091804;28;20885;-76
2023/01/06 09:22:06;;;;;;;4.93;3.10;;;;;;;-143.84;42.71;45102.38;5091684;28;20792;-76
2023/01/06 09:24:33;;;;;;;8.43;3.33;;;;;;;-143.84;43.31;45104.28;5091704;28;20449;-76
2023/01/06 09:27:01;;;;;;;34.20;3.97;;;;;;;-143.84;43.39;45119.53;5092537;28;20454;-79
2023/01/06 09:29:28;;;;;;;10.33;7.07;;;;;;;-143.84;43.03;45085.25;5094359;28;20977;-79
2023/01/06 09:31:57;;;;;;;10.73;3.70;;;;;;;-143.84;43.13;45106.19;5093048;28;20867;-78
2023/01/06 09:34:24;;;;;;;6.53;3.20;;;;;;;-143.84;42.62;45119.53;5093266;28;20480;-77
2023/01/06 09:36:51;;;;;;;9.40;4.30;;;;;;;-143.84;42.29;45106.19;5093160;28;20440;-76
2023/01/06 09:39:18;;;;;;;8.57;3.03;;;;;;;-143.84;42.12;45083.34;5093444;28;20437;-77
2023/01/06 09:42:05;;;;;;;3.60;2.80;;;;;;;-143.84;42.46;45108.09;5093363;28;20447;-77
2023/01/06 09:44:36;;;;;;;9.03;2.60;;;;;;;-143.84;42.18;45121.44;5093238;28;20479;-77
2023/01/06 09:47:05;;;;;;;3.20;2.90;;;;;;;-143.84;42.37;45098.56;5092924;28;20435;-77
2023/01/06 09:49:40;;;;;;;3.00;2.30;;;;;;;-143.84;41.53;45110.00;5092650;28;20982;-77
2023/01/06 09:52:16;;;;;;;3.80;2.43;;;;;;;-143.84;41.77;45098.56;5092855;28;20426;-77
2023/01/06 09:54:50;;;;;;;6.03;2.93;;;;;;;-143.84;41.11;45100.47;5093470;28;20559;-77
2023/01/06 09:57:22;;;;;;;2.23;2.03;;;;;;;-143.84;41.14;45092.88;5094221;28;20427;-77
2023/01/06 09:59:55;;;;;;;2.70;2.50;;;;;;;-143.84;41.42;45087.16;5093372;28;20437;-76
2023/01/06 10:02:30;;;;;;;5.40;2.90;;;;;;;-143.84;40.83;45092.88;5093301;28;20431;-78
2023/01/06 10:04:57;;;;;;;3.47;2.40;;;;;;;-143.84;40.53;45096.66;5093279;28;20545;-76
2023/01/06 10:07:34;;;;;;;3.90;2.63;;;;;;;-143.84;40.55;45081.44;5092412;28;20885;-76
2023/01/06 10:10:16;;;;;;;3.67;2.40;;;;;;;-143.84;40.59;45083.34;5092809;28;20521;-74
2023/01/06 10:12:53;;;;;;;2.77;2.50;;;;;;;-143.84;41.00;45081.44;5091744;28;21104;-77
2023/01/06 10:15:29;;;;;;;6.70;3.60;;;;;;;-143.84;41.45;45106.19;5091780;28;20474;-76
2023/01/06 10:18:13;;;;;;;4.10;2.60;;;;;;;-143.84;40.82;45079.53;5091886;28;20491;-76
2023/01/06 10:21:05;;;;;;;5.73;2.50;;;;;;;-143.84;40.23;45092.88;5091966;28;20865;-76
2023/01/06 10:24:02;;;;;;;2.20;2.00;;;;;;;-143.84;39.60;45098.56;5089035;28;20439;-76
2023/01/06 10:26:31;;;;;;;5.83;2.70;;;;;;;-143.84;39.77;45108.09;5091828;28;20456;-76
2023/01/06 10:29:04;;;;;;;2.30;2.10;;;;;;;-143.84;39.45;45071.91;5091865;28;20447;-76
2023/01/06 10:31:37;;;;;;;3.23;2.00;;;;;;;-143.84;38.55;45083.34;5091324;28;21018;-76
2023/01/06 10:34:15;;;;;;;3.77;2.43;;;;;;;-143.84;38.89;45094.78;5091715;28;20478;-76
2023/01/06 10:36:45;;;;;;;3.43;2.70;;;;;;;-143.84;38.65;45102.38;5092035;28;21005;-76
2023/01/06 10:39:16;;;;;;;2.20;1.80;;;;;;;-143.84;38.29;45079.53;5092166;28;20438;-77
2023/01/06 10:41:50;;;;;;;4.17;2.80;;;;;;;-143.84;38.48;45090.97;5091655;28;20946;-77
2023/01/06 10:44:18;;;;;;;3.30;2.60;;;;;;;-143.84;38.32;45079.53;5090818;28;20821;-77
2023/01/06 10:46:48;;;;;;;4.93;2.43;;;;;;;-143.84;38.64;45108.09;5090932;28;20794;-77
2023/01/06 10:49:19;;;;;;;3.00;2.43;;;;;;;-143.84;38.55;45108.09;5090185;28;20438;-77
2023/01/06 10:51:51;;;;;;;3.90;2.37;;;;;;;-143.84;38.86;45083.34;5091542;28;20451;-77
2023/01/06 10:54:23;;;;;;;2.33;1.77;;;;;;;-143.84;38.22;45098.56;5091182;28;20482;-78
2023/01/06 10:56:55;;;;;;;3.73;2.30;;;;;;;-143.84;37.94;45106.19;5091120;28;20491;-77
2023/01/06 10:59:23;;;;;;;3.23;2.50;;;;;;;-143.84;38.06;45079.53;5091673;28;20435;-77
2023/01/06 11:01:52;;;;;;;3.93;2.50;;;;;;;-143.84;38.27;45094.78;5092023;28;20439;-78
2023/01/06 11:04:21;;;;;;;3.73;2.47;;;;;;;-143.84;38.07;45071.91;5091410;28;20507;-77
2023/01/06 11:06:51;;;;;;;3.67;2.53;;;;;;;-143.84;38.36;45087.16;5091209;28;20438;-77
2023/01/06 11:09:38;;;;;;;2.27;2.07;;;;;;;-143.84;37.87;45075.72;5091089;28;20437;-77
2023/01/06 11:12:12;;;;;;;2.20;2.00;;;;;;;-143.84;37.74;45070.00;5091561;28;20482;-76
2023/01/06 11:14:41;;;;;;;2.03;1.63;;;;;;;-143.84;37.49;45075.72;5092718;28;20553;-77
2023/01/06 11:17:14;;;;;;;5.63;1.90;;;;;;;-143.84;38.10;45102.38;5092015;28;20803;-76
2023/01/06 11:19:44;;;;;;;4.10;2.40;;;;;;;-143.84;38.29;45092.88;5091390;28;20458;-77
2023/01/06 11:22:33;;;;;;;2.37;1.57;;;;;;;-143.84;37.02;45090.97;5091429;28;21013;-78
2023/01/06 11:25:00;;;;;;;2.20;1.43;;;;;;;-143.84;35.85;45094.78;5091644;28;20438;-78
2023/01/06 11:27:27;;;;;;;8.43;2.10;;;;;;;-143.84;36.66;45066.22;5089762;28;20500;-77
2023/01/06 11:29:54;;;;;;;1.77;1.50;;;;;;;-143.84;35.88;45108.09;5089473;28;20446;-77
2023/01/06 11:32:25;;;;;;;2.17;1.53;;;;;;;-143.84;35.67;45087.16;5089956;28;20787;-78